sensor_id;sensor_type;location;lat;lon;timestamp;temperature;humidity
46336;DHT22;31365;48.858;8.530;2022-10-04T00:01:51;8.20;99.90
46336;DHT22;31365;48.858;8.530;2022-10-04T00:04:29;8.20;99.90
46336;DHT22;31365;48.858;8.530;2022-10-04T00:07:03;8.10;99.90
46336;DHT22;31365;48.858;8.530;2022-10-04T00:09:40;8.10;99.90
46336;DHT22;31365;48.858;8.530;2022-10-04T00:12:18;8.10;99.90
46336;DHT22;31365;48.858;8.530;2022-10-04T00:14:50;8.10;99.90
46336;DHT22;31365;48.858;8.530;2022-10-04T00:17:24;8.10;99.90
46336;DHT22;31365;48.858;8.530;2022-10-04T00:19:57;8.10;99.90
46336;DHT22;31365;48.858;8.530;2022-10-04T00:22:27;8.00;99.90
46336;DHT22;31365;48.858;8.530;2022-10-04T00:25:24;8.10;99.90
46336;DHT22;31365;48.858;8.530;2022-10-04T00:28:28;8.00;99.90
46336;DHT22;31365;48.858;8.530;2022-10-04T00:31:18;8.00;99.90
46336;DHT22;31365;48.858;8.530;2022-10-04T00:34:46;8.00;99.90
46336;DHT22;31365;48.858;8.530;2022-10-04T00:37:18;8.00;99.90
46336;DHT22;31365;48.858;8.530;2022-10-04T00:39:58;8.00;99.90
46336;DHT22;31365;48.858;8.530;2022-10-04T00:42:39;8.00;99.90
46336;DHT22;31365;48.858;8.530;2022-10-04T00:45:21;8.00;99.90
46336;DHT22;31365;48.858;8.530;2022-10-04T00:51:21;7.90;99.90
46336;DHT22;31365;48.858;8.530;2022-10-04T00:54:00;7.90;99.90
46336;DHT22;31365;48.858;8.530;2022-10-04T00:56:38;7.90;99.90
46336;DHT22;31365;48.858;8.530;2022-10-04T00:59:21;7.80;99.90
46336;DHT22;31365;48.858;8.530;2022-10-04T01:01:59;7.80;99.90
46336;DHT22;31365;48.858;8.530;2022-10-04T01:04:39;7.70;99.90
46336;DHT22;31365;48.858;8.530;2022-10-04T01:07:12;7.70;99.90
46336;DHT22;31365;48.858;8.530;2022-10-04T01:09:51;7.70;99.90
46336;DHT22;31365;48.858;8.530;2022-10-04T01:12:35;7.70;99.90
46336;DHT22;31365;48.858;8.530;2022-10-04T01:15:15;7.70;99.90
46336;DHT22;31365;48.858;8.530;2022-10-04T01:18:10;7.70;99.90
46336;DHT22;31365;48.858;8.530;2022-10-04T01:20:49;7.70;99.90
46336;DHT22;31365;48.858;8.530;2022-10-04T01:23:34;7.70;99.90
46336;DHT22;31365;48.858;8.530;2022-10-04T01:26:37;7.70;99.90
46336;DHT22;31365;48.858;8.530;2022-10-04T01:29:11;7.70;99.90
46336;DHT22;31365;48.858;8.530;2022-10-04T01:31:43;7.70;99.90
46336;DHT22;31365;48.858;8.530;2022-10-04T01:34:15;7.70;99.90
46336;DHT22;31365;48.858;8.530;2022-10-04T01:36:47;7.70;99.90
46336;DHT22;31365;48.858;8.530;2022-10-04T01:39:21;7.70;99.90
46336;DHT22;31365;48.858;8.530;2022-10-04T01:41:55;7.70;99.90
46336;DHT22;31365;48.858;8.530;2022-10-04T01:44:31;7.70;99.90
46336;DHT22;31365;48.858;8.530;2022-10-04T01:47:07;7.70;99.90
46336;DHT22;31365;48.858;8.530;2022-10-04T01:49:43;7.70;99.90
46336;DHT22;31365;48.858;8.530;2022-10-04T01:52:16;7.70;99.90
46336;DHT22;31365;48.858;8.530;2022-10-04T01:54:54;7.70;99.90
46336;DHT22;31365;48.858;8.530;2022-10-04T01:57:33;7.70;99.90
46336;DHT22;31365;48.858;8.530;2022-10-04T02:00:07;7.70;99.90
46336;DHT22;31365;48.858;8.530;2022-10-04T02:02:42;7.80;99.90
46336;DHT22;31365;48.858;8.530;2022-10-04T02:05:25;7.80;99.90
46336;DHT22;31365;48.858;8.530;2022-10-04T02:08:01;7.80;99.90
46336;DHT22;31365;48.858;8.530;2022-10-04T02:10:34;7.80;99.90
46336;DHT22;31365;48.858;8.530;2022-10-04T02:13:12;7.80;99.90
46336;DHT22;31365;48.858;8.530;2022-10-04T02:15:45;7.80;99.90
46336;DHT22;31365;48.858;8.530;2022-10-04T02:18:18;7.80;99.90
46336;DHT22;31365;48.858;8.530;2022-10-04T02:20:50;7.80;99.90
46336;DHT22;31365;48.858;8.530;2022-10-04T02:23:22;7.80;99.90
46336;DHT22;31365;48.858;8.530;2022-10-04T02:25:53;7.90;99.90
46336;DHT22;31365;48.858;8.530;2022-10-04T02:28:22;7.90;99.90
46336;DHT22;31365;48.858;8.530;2022-10-04T02:30:51;7.90;99.90
46336;DHT22;31365;48.858;8.530;2022-10-04T02:33:39;7.90;99.90
46336;DHT22;31365;48.858;8.530;2022-10-04T02:36:10;8.00;99.90
46336;DHT22;31365;48.858;8.530;2022-10-04T02:38:43;8.00;99.90
46336;DHT22;31365;48.858;8.530;2022-10-04T02:41:23;8.00;99.90
46336;DHT22;31365;48.858;8.530;2022-10-04T02:43:58;8.00;99.90
46336;DHT22;31365;48.858;8.530;2022-10-04T02:46:34;8.00;99.90
46336;DHT22;31365;48.858;8.530;2022-10-04T02:49:17;8.00;99.90
46336;DHT22;31365;48.858;8.530;2022-10-04T02:51:57;8.00;99.90
46336;DHT22;31365;48.858;8.530;2022-10-04T02:54:32;8.00;99.90
46336;DHT22;31365;48.858;8.530;2022-10-04T02:57:13;8.00;99.90
46336;DHT22;31365;48.858;8.530;2022-10-04T02:59:44;8.00;99.90
46336;DHT22;31365;48.858;8.530;2022-10-04T03:02:22;8.20;99.90
46336;DHT22;31365;48.858;8.530;2022-10-04T03:04:59;8.10;99.90
46336;DHT22;31365;48.858;8.530;2022-10-04T03:07:34;8.10;99.90
46336;DHT22;31365;48.858;8.530;2022-10-04T03:10:06;8.10;99.90
46336;DHT22;31365;48.858;8.530;2022-10-04T03:12:38;8.00;99.90
46336;DHT22;31365;48.858;8.530;2022-10-04T03:15:10;8.00;99.90
46336;DHT22;31365;48.858;8.530;2022-10-04T03:17:40;8.00;99.90
46336;DHT22;31365;48.858;8.530;2022-10-04T03:20:12;8.00;99.90
46336;DHT22;31365;48.858;8.530;2022-10-04T03:22:50;8.00;99.90
46336;DHT22;31365;48.858;8.530;2022-10-04T03:25:27;8.10;99.90
46336;DHT22;31365;48.858;8.530;2022-10-04T03:28:00;8.10;99.90
46336;DHT22;31365;48.858;8.530;2022-10-04T03:30:30;8.20;99.90
46336;DHT22;31365;48.858;8.530;2022-10-04T03:32:59;8.20;99.90
46336;DHT22;31365;48.858;8.530;2022-10-04T03:35:28;8.20;99.90
46336;DHT22;31365;48.858;8.530;2022-10-04T03:38:05;8.30;99.90
46336;DHT22;31365;48.858;8.530;2022-10-04T03:40:37;8.30;99.90
46336;DHT22;31365;48.858;8.530;2022-10-04T03:43:11;8.30;99.90
46336;DHT22;31365;48.858;8.530;2022-10-04T03:45:41;8.30;99.90
46336;DHT22;31365;48.858;8.530;2022-10-04T03:48:13;8.40;99.90
46336;DHT22;31365;48.858;8.530;2022-10-04T03:50:48;8.40;99.90
46336;DHT22;31365;48.858;8.530;2022-10-04T03:53:26;8.30;99.90
46336;DHT22;31365;48.858;8.530;2022-10-04T03:55:58;8.40;99.90
46336;DHT22;31365;48.858;8.530;2022-10-04T03:58:32;8.40;99.90
46336;DHT22;31365;48.858;8.530;2022-10-04T04:01:16;8.40;99.90
46336;DHT22;31365;48.858;8.530;2022-10-04T04:03:56;8.40;99.90
46336;DHT22;31365;48.858;8.530;2022-10-04T04:06:39;8.40;99.90
46336;DHT22;31365;48.858;8.530;2022-10-04T04:09:18;8.50;99.90
46336;DHT22;31365;48.858;8.530;2022-10-04T04:11:53;8.40;99.90
46336;DHT22;31365;48.858;8.530;2022-10-04T04:14:26;8.40;99.90
46336;DHT22;31365;48.858;8.530;2022-10-04T04:17:17;8.40;99.90
46336;DHT22;31365;48.858;8.530;2022-10-04T04:19:59;8.50;99.90
46336;DHT22;31365;48.858;8.530;2022-10-04T04:22:34;8.40;99.90
46336;DHT22;31365;48.858;8.530;2022-10-04T04:25:06;8.40;99.90
46336;DHT22;31365;48.858;8.530;2022-10-04T04:27:43;8.40;99.90
46336;DHT22;31365;48.858;8.530;2022-10-04T04:30:17;8.30;99.90
46336;DHT22;31365;48.858;8.530;2022-10-04T04:32:49;8.30;99.90
46336;DHT22;31365;48.858;8.530;2022-10-04T04:35:24;8.20;99.90
46336;DHT22;31365;48.858;8.530;2022-10-04T04:38:08;8.20;99.90
46336;DHT22;31365;48.858;8.530;2022-10-04T04:40:43;8.00;99.90
46336;DHT22;31365;48.858;8.530;2022-10-04T04:43:17;8.00;99.90
46336;DHT22;31365;48.858;8.530;2022-10-04T04:45:48;7.90;99.90
46336;DHT22;31365;48.858;8.530;2022-10-04T04:48:38;7.90;99.90
46336;DHT22;31365;48.858;8.530;2022-10-04T04:51:17;7.90;99.90
46336;DHT22;31365;48.858;8.530;2022-10-04T04:53:49;7.80;99.90
46336;DHT22;31365;48.858;8.530;2022-10-04T04:56:22;7.90;99.90
46336;DHT22;31365;48.858;8.530;2022-10-04T04:58:56;7.80;99.90
46336;DHT22;31365;48.858;8.530;2022-10-04T05:01:32;7.80;99.90
46336;DHT22;31365;48.858;8.530;2022-10-04T05:04:04;7.80;99.90
46336;DHT22;31365;48.858;8.530;2022-10-04T05:06:44;7.80;99.90
46336;DHT22;31365;48.858;8.530;2022-10-04T05:09:24;7.80;99.90
46336;DHT22;31365;48.858;8.530;2022-10-04T05:12:01;7.90;99.90
46336;DHT22;31365;48.858;8.530;2022-10-04T05:14:37;7.90;99.90
46336;DHT22;31365;48.858;8.530;2022-10-04T05:17:17;7.80;99.90
46336;DHT22;31365;48.858;8.530;2022-10-04T05:19:47;7.70;99.90
46336;DHT22;31365;48.858;8.530;2022-10-04T05:22:19;7.80;99.90
46336;DHT22;31365;48.858;8.530;2022-10-04T05:24:51;7.80;99.90
46336;DHT22;31365;48.858;8.530;2022-10-04T05:27:26;7.80;99.90
46336;DHT22;31365;48.858;8.530;2022-10-04T05:30:03;7.80;99.90
46336;DHT22;31365;48.858;8.530;2022-10-04T05:32:44;7.80;99.90
46336;DHT22;31365;48.858;8.530;2022-10-04T05:35:21;7.80;99.90
46336;DHT22;31365;48.858;8.530;2022-10-04T05:38:04;7.80;99.90
46336;DHT22;31365;48.858;8.530;2022-10-04T05:40:44;7.90;99.90
46336;DHT22;31365;48.858;8.530;2022-10-04T05:43:23;7.90;99.90
46336;DHT22;31365;48.858;8.530;2022-10-04T05:46:21;7.90;99.90
46336;DHT22;31365;48.858;8.530;2022-10-04T05:48:54;7.90;99.90
46336;DHT22;31365;48.858;8.530;2022-10-04T05:51:29;7.90;99.90
46336;DHT22;31365;48.858;8.530;2022-10-04T05:54:04;8.00;99.90
46336;DHT22;31365;48.858;8.530;2022-10-04T06:00:14;8.00;99.90
46336;DHT22;31365;48.858;8.530;2022-10-04T06:03:06;8.10;99.90
46336;DHT22;31365;48.858;8.530;2022-10-04T06:05:50;8.20;99.90
46336;DHT22;31365;48.858;8.530;2022-10-04T06:08:36;8.20;99.90
46336;DHT22;31365;48.858;8.530;2022-10-04T06:11:21;8.30;99.90
46336;DHT22;31365;48.858;8.530;2022-10-04T06:14:16;8.30;99.90
46336;DHT22;31365;48.858;8.530;2022-10-04T06:17:16;8.40;99.90
46336;DHT22;31365;48.858;8.530;2022-10-04T06:20:24;8.50;99.90
46336;DHT22;31365;48.858;8.530;2022-10-04T06:23:15;8.60;99.90
46336;DHT22;31365;48.858;8.530;2022-10-04T06:25:49;8.80;99.90
46336;DHT22;31365;48.858;8.530;2022-10-04T06:28:23;8.90;99.90
46336;DHT22;31365;48.858;8.530;2022-10-04T06:31:17;9.00;99.90
46336;DHT22;31365;48.858;8.530;2022-10-04T06:34:44;9.10;99.90
46336;DHT22;31365;48.858;8.530;2022-10-04T06:37:49;9.30;99.90
46336;DHT22;31365;48.858;8.530;2022-10-04T06:40:46;9.40;99.90
46336;DHT22;31365;48.858;8.530;2022-10-04T06:43:40;9.60;99.90
46336;DHT22;31365;48.858;8.530;2022-10-04T06:46:24;9.60;99.90
46336;DHT22;31365;48.858;8.530;2022-10-04T06:49:15;9.80;99.90
46336;DHT22;31365;48.858;8.530;2022-10-04T06:52:24;9.90;99.90
46336;DHT22;31365;48.858;8.530;2022-10-04T07:01:44;10.20;99.90
46336;DHT22;31365;48.858;8.530;2022-10-04T07:04:30;10.20;99.90
46336;DHT22;31365;48.858;8.530;2022-10-04T07:07:36;10.30;99.90
46336;DHT22;31365;48.858;8.530;2022-10-04T07:10:27;10.40;99.90
46336;DHT22;31365;48.858;8.530;2022-10-04T07:13:20;10.50;99.90
46336;DHT22;31365;48.858;8.530;2022-10-04T07:16:02;10.60;99.90
46336;DHT22;31365;48.858;8.530;2022-10-04T07:18:43;10.80;99.90
46336;DHT22;31365;48.858;8.530;2022-10-04T07:21:18;10.80;99.90
46336;DHT22;31365;48.858;8.530;2022-10-04T07:23:50;10.80;99.90
46336;DHT22;31365;48.858;8.530;2022-10-04T07:26:27;10.90;99.90
46336;DHT22;31365;48.858;8.530;2022-10-04T07:29:01;10.90;99.90
46336;DHT22;31365;48.858;8.530;2022-10-04T07:31:50;10.90;99.90
46336;DHT22;31365;48.858;8.530;2022-10-04T07:34:31;11.10;99.90
46336;DHT22;31365;48.858;8.530;2022-10-04T07:37:08;11.00;99.90
46336;DHT22;31365;48.858;8.530;2022-10-04T07:39:43;11.10;99.90
46336;DHT22;31365;48.858;8.530;2022-10-04T07:42:24;11.20;99.90
46336;DHT22;31365;48.858;8.530;2022-10-04T07:45:08;11.30;99.90
46336;DHT22;31365;48.858;8.530;2022-10-04T07:47:41;11.40;99.90
46336;DHT22;31365;48.858;8.530;2022-10-04T07:50:21;11.40;99.90
46336;DHT22;31365;48.858;8.530;2022-10-04T07:52:55;11.50;99.90
46336;DHT22;31365;48.858;8.530;2022-10-04T07:55:42;11.60;99.90
46336;DHT22;31365;48.858;8.530;2022-10-04T07:58:32;11.70;99.90
46336;DHT22;31365;48.858;8.530;2022-10-04T08:01:21;11.80;99.90
46336;DHT22;31365;48.858;8.530;2022-10-04T08:04:10;11.80;99.90
46336;DHT22;31365;48.858;8.530;2022-10-04T08:06:56;12.00;99.90
46336;DHT22;31365;48.858;8.530;2022-10-04T08:09:42;12.00;99.90
46336;DHT22;31365;48.858;8.530;2022-10-04T08:12:24;12.00;99.90
46336;DHT22;31365;48.858;8.530;2022-10-04T08:15:19;12.10;99.90
46336;DHT22;31365;48.858;8.530;2022-10-04T08:18:10;12.10;99.90
46336;DHT22;31365;48.858;8.530;2022-10-04T08:20:56;12.10;99.90
46336;DHT22;31365;48.858;8.530;2022-10-04T08:23:47;12.20;99.90
46336;DHT22;31365;48.858;8.530;2022-10-04T08:26:43;12.30;99.90
46336;DHT22;31365;48.858;8.530;2022-10-04T08:29:38;12.40;99.90
46336;DHT22;31365;48.858;8.530;2022-10-04T08:32:29;12.50;99.90
46336;DHT22;31365;48.858;8.530;2022-10-04T08:35:33;12.60;99.90
46336;DHT22;31365;48.858;8.530;2022-10-04T08:38:24;12.70;99.90
46336;DHT22;31365;48.858;8.530;2022-10-04T08:45:10;12.90;99.90
46336;DHT22;31365;48.858;8.530;2022-10-04T08:48:39;13.00;99.90
46336;DHT22;31365;48.858;8.530;2022-10-04T08:55:34;13.30;99.90
46336;DHT22;31365;48.858;8.530;2022-10-04T08:58:31;13.50;99.90
46336;DHT22;31365;48.858;8.530;2022-10-04T09:01:48;13.60;99.90
46336;DHT22;31365;48.858;8.530;2022-10-04T09:05:12;13.70;99.90
46336;DHT22;31365;48.858;8.530;2022-10-04T09:08:13;13.80;99.90
46336;DHT22;31365;48.858;8.530;2022-10-04T09:14:47;13.90;99.90
46336;DHT22;31365;48.858;8.530;2022-10-04T09:17:36;14.10;99.90
46336;DHT22;31365;48.858;8.530;2022-10-04T09:20:23;14.30;99.90
46336;DHT22;31365;48.858;8.530;2022-10-04T09:23:15;14.50;99.90
46336;DHT22;31365;48.858;8.530;2022-10-04T09:26:19;14.60;99.90
46336;DHT22;31365;48.858;8.530;2022-10-04T09:29:06;14.70;99.90
46336;DHT22;31365;48.858;8.530;2022-10-04T09:32:06;14.80;99.90
46336;DHT22;31365;48.858;8.530;2022-10-04T09:35:11;14.80;99.90
46336;DHT22;31365;48.858;8.530;2022-10-04T09:41:50;14.90;99.90
46336;DHT22;31365;48.858;8.530;2022-10-04T09:45:05;14.90;99.90
46336;DHT22;31365;48.858;8.530;2022-10-04T09:47:55;15.00;99.90
46336;DHT22;31365;48.858;8.530;2022-10-04T09:51:03;15.10;99.90
46336;DHT22;31365;48.858;8.530;2022-10-04T09:54:09;15.00;99.90
46336;DHT22;31365;48.858;8.530;2022-10-04T09:57:11;15.10;99.90
46336;DHT22;31365;48.858;8.530;2022-10-04T10:03:23;15.40;99.90
46336;DHT22;31365;48.858;8.530;2022-10-04T10:06:36;15.60;99.90
46336;DHT22;31365;48.858;8.530;2022-10-04T10:09:26;15.70;99.90
46336;DHT22;31365;48.858;8.530;2022-10-04T10:12:29;15.80;99.90
46336;DHT22;31365;48.858;8.530;2022-10-04T10:15:29;16.00;99.90
46336;DHT22;31365;48.858;8.530;2022-10-04T10:18:11;16.30;99.90
46336;DHT22;31365;48.858;8.530;2022-10-04T10:21:07;16.50;99.90
46336;DHT22;31365;48.858;8.530;2022-10-04T10:23:49;17.00;99.90
46336;DHT22;31365;48.858;8.530;2022-10-04T10:26:36;17.70;99.90
46336;DHT22;31365;48.858;8.530;2022-10-04T10:29:44;18.20;99.90
46336;DHT22;31365;48.858;8.530;2022-10-04T10:32:42;18.70;99.90
46336;DHT22;31365;48.858;8.530;2022-10-04T10:38:28;19.50;99.90
46336;DHT22;31365;48.858;8.530;2022-10-04T10:44:44;20.30;99.90
46336;DHT22;31365;48.858;8.530;2022-10-04T10:47:39;20.80;99.90
46336;DHT22;31365;48.858;8.530;2022-10-04T10:54:22;21.50;99.90
46336;DHT22;31365;48.858;8.530;2022-10-04T10:57:37;22.20;99.90
46336;DHT22;31365;48.858;8.530;2022-10-04T11:00:21;23.00;99.90
46336;DHT22;31365;48.858;8.530;2022-10-04T11:03:20;23.50;99.90
46336;DHT22;31365;48.858;8.530;2022-10-04T11:06:32;24.10;99.90
46336;DHT22;31365;48.858;8.530;2022-10-04T11:09:27;24.50;99.90
46336;DHT22;31365;48.858;8.530;2022-10-04T11:15:36;24.40;99.90
46336;DHT22;31365;48.858;8.530;2022-10-04T11:18:24;24.30;99.90
46336;DHT22;31365;48.858;8.530;2022-10-04T11:28:27;25.90;99.90
46336;DHT22;31365;48.858;8.530;2022-10-04T11:31:29;25.70;99.90
46336;DHT22;31365;48.858;8.530;2022-10-04T11:34:43;25.50;99.90
46336;DHT22;31365;48.858;8.530;2022-10-04T11:37:58;25.30;99.90
46336;DHT22;31365;48.858;8.530;2022-10-04T11:40:56;25.60;99.90
46336;DHT22;31365;48.858;8.530;2022-10-04T11:44:04;26.10;99.90
46336;DHT22;31365;48.858;8.530;2022-10-04T11:46:52;26.30;99.90
46336;DHT22;31365;48.858;8.530;2022-10-04T11:49:48;26.70;99.90
46336;DHT22;31365;48.858;8.530;2022-10-04T11:52:50;27.50;99.90
46336;DHT22;31365;48.858;8.530;2022-10-04T11:55:49;28.10;99.90
46336;DHT22;31365;48.858;8.530;2022-10-04T11:58:53;28.80;99.90
46336;DHT22;31365;48.858;8.530;2022-10-04T12:02:06;29.20;99.90
46336;DHT22;31365;48.858;8.530;2022-10-04T12:05:32;28.90;99.90
46336;DHT22;31365;48.858;8.530;2022-10-04T12:08:22;29.60;98.70
46336;DHT22;31365;48.858;8.530;2022-10-04T12:15:11;30.50;96.50
46336;DHT22;31365;48.858;8.530;2022-10-04T12:21:53;29.90;95.50
46336;DHT22;31365;48.858;8.530;2022-10-04T12:24:49;29.50;95.80
46336;DHT22;31365;48.858;8.530;2022-10-04T12:31:18;30.20;94.90
46336;DHT22;31365;48.858;8.530;2022-10-04T12:33:57;30.80;94.40
46336;DHT22;31365;48.858;8.530;2022-10-04T12:39:51;32.10;91.80
46336;DHT22;31365;48.858;8.530;2022-10-04T12:42:35;32.70;90.80
46336;DHT22;31365;48.858;8.530;2022-10-04T12:45:19;32.70;90.80
46336;DHT22;31365;48.858;8.530;2022-10-04T12:48:04;33.10;88.60
46336;DHT22;31365;48.858;8.530;2022-10-04T12:50:57;33.40;88.20
46336;DHT22;31365;48.858;8.530;2022-10-04T12:53:34;33.20;87.50
46336;DHT22;31365;48.858;8.530;2022-10-04T12:56:19;33.40;85.90
46336;DHT22;31365;48.858;8.530;2022-10-04T12:59:08;33.90;85.20
46336;DHT22;31365;48.858;8.530;2022-10-04T13:01:50;33.70;83.00
46336;DHT22;31365;48.858;8.530;2022-10-04T13:04:32;33.70;82.40
46336;DHT22;31365;48.858;8.530;2022-10-04T13:07:17;33.70;82.30
46336;DHT22;31365;48.858;8.530;2022-10-04T13:10:17;33.50;83.00
46336;DHT22;31365;48.858;8.530;2022-10-04T13:13:00;33.70;81.10
46336;DHT22;31365;48.858;8.530;2022-10-04T13:15:55;33.70;80.90
46336;DHT22;31365;48.858;8.530;2022-10-04T13:18:56;33.50;81.00
46336;DHT22;31365;48.858;8.530;2022-10-04T13:28:14;33.50;80.90
46336;DHT22;31365;48.858;8.530;2022-10-04T13:30:50;33.40;80.20
46336;DHT22;31365;48.858;8.530;2022-10-04T13:33:29;33.40;80.00
46336;DHT22;31365;48.858;8.530;2022-10-04T13:36:04;33.00;80.40
46336;DHT22;31365;48.858;8.530;2022-10-04T13:38:44;33.20;80.10
46336;DHT22;31365;48.858;8.530;2022-10-04T13:41:34;33.10;80.50
46336;DHT22;31365;48.858;8.530;2022-10-04T13:44:23;33.40;79.70
46336;DHT22;31365;48.858;8.530;2022-10-04T13:47:09;32.90;80.00
46336;DHT22;31365;48.858;8.530;2022-10-04T13:49:51;32.60;80.70
46336;DHT22;31365;48.858;8.530;2022-10-04T13:52:35;32.30;80.90
46336;DHT22;31365;48.858;8.530;2022-10-04T13:55:34;32.40;80.40
46336;DHT22;31365;48.858;8.530;2022-10-04T13:58:33;32.00;81.00
46336;DHT22;31365;48.858;8.530;2022-10-04T14:01:27;31.90;81.30
46336;DHT22;31365;48.858;8.530;2022-10-04T14:04:24;31.50;82.20
46336;DHT22;31365;48.858;8.530;2022-10-04T14:07:27;31.10;82.40
46336;DHT22;31365;48.858;8.530;2022-10-04T14:10:18;30.70;83.50
46336;DHT22;31365;48.858;8.530;2022-10-04T14:16:10;29.50;85.10
46336;DHT22;31365;48.858;8.530;2022-10-04T14:25:15;25.60;91.80
46336;DHT22;31365;48.858;8.530;2022-10-04T14:28:17;24.60;93.10
46336;DHT22;31365;48.858;8.530;2022-10-04T14:31:17;23.80;95.00
46336;DHT22;31365;48.858;8.530;2022-10-04T14:34:09;23.10;95.70
46336;DHT22;31365;48.858;8.530;2022-10-04T14:37:02;22.60;96.60
46336;DHT22;31365;48.858;8.530;2022-10-04T14:40:02;22.10;97.90
46336;DHT22;31365;48.858;8.530;2022-10-04T14:42:45;21.80;98.60
46336;DHT22;31365;48.858;8.530;2022-10-04T14:45:27;21.50;99.00
46336;DHT22;31365;48.858;8.530;2022-10-04T14:51:19;21.00;99.90
46336;DHT22;31365;48.858;8.530;2022-10-04T14:53:58;20.70;99.90
46336;DHT22;31365;48.858;8.530;2022-10-04T14:56:38;20.60;99.90
46336;DHT22;31365;48.858;8.530;2022-10-04T14:59:22;20.40;99.90
46336;DHT22;31365;48.858;8.530;2022-10-04T15:02:22;20.30;99.90
46336;DHT22;31365;48.858;8.530;2022-10-04T15:05:27;20.10;99.90
46336;DHT22;31365;48.858;8.530;2022-10-04T15:08:28;20.00;99.90
46336;DHT22;31365;48.858;8.530;2022-10-04T15:11:11;19.90;99.90
46336;DHT22;31365;48.858;8.530;2022-10-04T15:13:50;19.80;99.90
46336;DHT22;31365;48.858;8.530;2022-10-04T15:16:32;19.60;99.90
46336;DHT22;31365;48.858;8.530;2022-10-04T15:19:24;19.60;99.90
46336;DHT22;31365;48.858;8.530;2022-10-04T15:22:04;19.50;99.90
46336;DHT22;31365;48.858;8.530;2022-10-04T15:24:46;19.40;99.90
46336;DHT22;31365;48.858;8.530;2022-10-04T15:30:37;19.10;99.90
46336;DHT22;31365;48.858;8.530;2022-10-04T15:33:32;19.10;99.90
46336;DHT22;31365;48.858;8.530;2022-10-04T15:42:55;18.80;99.90
46336;DHT22;31365;48.858;8.530;2022-10-04T15:57:59;18.30;99.90
46336;DHT22;31365;48.858;8.530;2022-10-04T16:00:56;18.20;99.90
46336;DHT22;31365;48.858;8.530;2022-10-04T16:03:42;18.10;99.90
46336;DHT22;31365;48.858;8.530;2022-10-04T16:06:22;18.10;99.90
46336;DHT22;31365;48.858;8.530;2022-10-04T16:09:15;18.10;99.90
46336;DHT22;31365;48.858;8.530;2022-10-04T16:12:00;18.00;99.90
46336;DHT22;31365;48.858;8.530;2022-10-04T16:15:10;17.90;99.90
46336;DHT22;31365;48.858;8.530;2022-10-04T16:18:04;17.90;99.90
46336;DHT22;31365;48.858;8.530;2022-10-04T16:20:55;17.80;99.90
46336;DHT22;31365;48.858;8.530;2022-10-04T16:23:44;17.70;99.90
46336;DHT22;31365;48.858;8.530;2022-10-04T16:29:46;17.50;99.90
46336;DHT22;31365;48.858;8.530;2022-10-04T16:33:04;17.40;99.90
46336;DHT22;31365;48.858;8.530;2022-10-04T16:36:00;17.30;99.90
46336;DHT22;31365;48.858;8.530;2022-10-04T16:38:42;17.20;99.90
46336;DHT22;31365;48.858;8.530;2022-10-04T16:41:38;17.10;99.90
46336;DHT22;31365;48.858;8.530;2022-10-04T16:44:28;17.00;99.90
46336;DHT22;31365;48.858;8.530;2022-10-04T16:47:14;16.90;99.90
46336;DHT22;31365;48.858;8.530;2022-10-04T16:49:52;16.80;99.90
46336;DHT22;31365;48.858;8.530;2022-10-04T16:52:36;16.60;99.90
46336;DHT22;31365;48.858;8.530;2022-10-04T16:55:34;16.60;99.90
46336;DHT22;31365;48.858;8.530;2022-10-04T17:04:54;16.20;99.90
46336;DHT22;31365;48.858;8.530;2022-10-04T17:07:41;16.00;99.90
46336;DHT22;31365;48.858;8.530;2022-10-04T17:10:31;15.90;99.90
46336;DHT22;31365;48.858;8.530;2022-10-04T17:13:20;15.80;99.90
46336;DHT22;31365;48.858;8.530;2022-10-04T17:16:00;15.70;99.90
46336;DHT22;31365;48.858;8.530;2022-10-04T17:18:46;15.60;99.90
46336;DHT22;31365;48.858;8.530;2022-10-04T17:21:29;15.50;99.90
46336;DHT22;31365;48.858;8.530;2022-10-04T17:24:17;15.40;99.90
46336;DHT22;31365;48.858;8.530;2022-10-04T17:27:08;15.30;99.90
46336;DHT22;31365;48.858;8.530;2022-10-04T17:29:58;15.30;99.90
46336;DHT22;31365;48.858;8.530;2022-10-04T17:32:43;15.10;99.90
46336;DHT22;31365;48.858;8.530;2022-10-04T17:35:51;15.00;99.90
46336;DHT22;31365;48.858;8.530;2022-10-04T17:38:33;14.90;99.90
46336;DHT22;31365;48.858;8.530;2022-10-04T17:41:17;14.80;99.90
46336;DHT22;31365;48.858;8.530;2022-10-04T17:44:15;14.70;99.90
46336;DHT22;31365;48.858;8.530;2022-10-04T17:46:58;14.70;99.90
46336;DHT22;31365;48.858;8.530;2022-10-04T17:49:42;14.60;99.90
46336;DHT22;31365;48.858;8.530;2022-10-04T17:52:44;14.60;99.90
46336;DHT22;31365;48.858;8.530;2022-10-04T17:55:47;14.50;99.90
46336;DHT22;31365;48.858;8.530;2022-10-04T17:58:21;14.50;99.90
46336;DHT22;31365;48.858;8.530;2022-10-04T18:01:01;14.40;99.90
46336;DHT22;31365;48.858;8.530;2022-10-04T18:03:37;14.30;99.90
46336;DHT22;31365;48.858;8.530;2022-10-04T18:06:18;14.20;99.90
46336;DHT22;31365;48.858;8.530;2022-10-04T18:08:58;14.20;99.90
46336;DHT22;31365;48.858;8.530;2022-10-04T18:11:40;14.10;99.90
46336;DHT22;31365;48.858;8.530;2022-10-04T18:14:37;14.10;99.90
46336;DHT22;31365;48.858;8.530;2022-10-04T18:17:26;14.00;99.90
46336;DHT22;31365;48.858;8.530;2022-10-04T18:20:32;13.90;99.90
46336;DHT22;31365;48.858;8.530;2022-10-04T18:23:15;13.90;99.90
46336;DHT22;31365;48.858;8.530;2022-10-04T18:25:45;13.90;99.90
46336;DHT22;31365;48.858;8.530;2022-10-04T18:28:19;13.80;99.90
46336;DHT22;31365;48.858;8.530;2022-10-04T18:30:53;13.80;99.90
46336;DHT22;31365;48.858;8.530;2022-10-04T18:33:30;13.70;99.90
46336;DHT22;31365;48.858;8.530;2022-10-04T18:36:17;13.70;99.90
46336;DHT22;31365;48.858;8.530;2022-10-04T18:39:03;13.60;99.90
46336;DHT22;31365;48.858;8.530;2022-10-04T18:42:11;13.60;99.90
46336;DHT22;31365;48.858;8.530;2022-10-04T18:44:54;13.50;99.90
46336;DHT22;31365;48.858;8.530;2022-10-04T18:47:31;13.40;99.90
46336;DHT22;31365;48.858;8.530;2022-10-04T18:50:15;13.40;99.90
46336;DHT22;31365;48.858;8.530;2022-10-04T18:53:11;13.30;99.90
46336;DHT22;31365;48.858;8.530;2022-10-04T18:56:04;13.30;99.90
46336;DHT22;31365;48.858;8.530;2022-10-04T18:59:00;13.20;99.90
46336;DHT22;31365;48.858;8.530;2022-10-04T19:02:08;13.20;99.90
46336;DHT22;31365;48.858;8.530;2022-10-04T19:04:56;13.10;99.90
46336;DHT22;31365;48.858;8.530;2022-10-04T19:07:35;13.10;99.90
46336;DHT22;31365;48.858;8.530;2022-10-04T19:10:24;13.00;99.90
46336;DHT22;31365;48.858;8.530;2022-10-04T19:13:16;12.90;99.90
46336;DHT22;31365;48.858;8.530;2022-10-04T19:16:14;12.90;99.90
46336;DHT22;31365;48.858;8.530;2022-10-04T19:19:11;12.90;99.90
46336;DHT22;31365;48.858;8.530;2022-10-04T19:22:01;12.90;99.90
46336;DHT22;31365;48.858;8.530;2022-10-04T19:24:46;12.80;99.90
46336;DHT22;31365;48.858;8.530;2022-10-04T19:27:31;12.80;99.90
46336;DHT22;31365;48.858;8.530;2022-10-04T19:30:13;12.80;99.90
46336;DHT22;31365;48.858;8.530;2022-10-04T19:33:02;12.70;99.90
46336;DHT22;31365;48.858;8.530;2022-10-04T19:35:50;12.70;99.90